»·PEaware :: N9193G KCMA-KSNA

N9193G :: KCMA-KSNA

FLIGHT INFORMATION

Flight Status: Arrived
Operator: Privately registered:
United States
More flights under this callsign
Pilot: Seung K. (26649)
Aircraft: CESSNA 206 STATIONAIR
(C206)
More flights by this aircraft type
Origin: KCMA Camarillo
United States
Destination: KSNA John Wayne-Orange Co
United States
More flights between these airports :: More routes between these airports
Route: +DCT
File this flight plan on PilotEdge
Remarks: CAT-10 RATING
Altitude:
(Current/Filed)
5,500ft
Speed:
(Current/Filed)
200kts
Departed: 22-Dec-19 06:58 PM
Arrived: 22-Dec-19 08:03 PM
Distance/Time
Traveled:
0nm/1:05
Distance/Time
To Go:
Arrived

Flight Plot

Page will automatically refresh every two minutes.

Flight plan parsing failed; only flown route is shown


Map Options




Map Legend


Flown Route
Filed Route
Departure Airport
Arrival Airport
Navaid (VOR, NDB)
Fix

Horizontal Profiles

Position Reports

Time Latitude Longitude Heading Altitude Ground
Speed
22-Dec-19 18:46 34.210580 -119.095239 1 63ft 0kts
22-Dec-19 18:47 34.210580 -119.095239 1 63ft 0kts
22-Dec-19 18:48 34.210580 -119.095239 1 63ft 0kts
22-Dec-19 18:49 34.210580 -119.095239 1 63ft 0kts
22-Dec-19 18:50 34.210966 -119.095027 83 65ft 7kts
22-Dec-19 18:51 34.210969 -119.092443 90 66ft 20kts
22-Dec-19 18:52 34.210941 -119.089129 93 69ft 7kts
22-Dec-19 18:53 34.210932 -119.085373 92 73ft 12kts
22-Dec-19 18:54 34.212591 -119.084608 358 75ft 22kts
22-Dec-19 18:55 34.212881 -119.084601 4 76ft 0kts
22-Dec-19 18:56 34.213656 -119.085092 274 76ft 14kts
22-Dec-19 18:57 34.215356 -119.098168 273 474ft 92kts
22-Dec-19 18:58 34.206701 -119.098085 116 1531ft 106kts
22-Dec-19 18:59 34.200417 -119.074271 112 2314ft 134kts
22-Dec-19 19:00 34.189796 -119.044259 124 2547ft 141kts
22-Dec-19 19:01 34.177296 -119.016334 124 3169ft 136kts
22-Dec-19 19:02 34.164829 -118.987781 123 3851ft 136kts
22-Dec-19 19:03 34.152313 -118.958822 123 4519ft 136kts
22-Dec-19 19:04 34.139801 -118.929780 123 5200ft 137kts
22-Dec-19 19:05 34.126381 -118.898783 122 5573ft 156kts
22-Dec-19 19:06 34.111928 -118.865302 122 5554ft 146kts
22-Dec-19 19:07 34.102259 -118.842664 124 5587ft 119kts
22-Dec-19 19:08 34.092546 -118.817208 96 5557ft 133kts
22-Dec-19 19:09 34.098867 -118.788186 75 5560ft 135kts
22-Dec-19 19:10 34.106016 -118.759736 75 5562ft 136kts
22-Dec-19 19:11 34.112908 -118.732321 75 5558ft 135kts
22-Dec-19 19:12 34.119879 -118.704589 75 5561ft 136kts
22-Dec-19 19:13 34.126783 -118.677094 75 5569ft 138kts
22-Dec-19 19:14 34.133449 -118.650539 75 5562ft 136kts
22-Dec-19 19:15 34.139870 -118.624957 75 5583ft 136kts
22-Dec-19 19:16 34.148633 -118.601872 43 5566ft 138kts
22-Dec-19 19:17 34.148424 -118.579364 142 5557ft 121kts
22-Dec-19 19:18 34.136466 -118.560401 119 5572ft 127kts
22-Dec-19 19:19 34.128106 -118.538211 123 5559ft 126kts
22-Dec-19 19:20 34.117227 -118.518322 134 5559ft 123kts
22-Dec-19 19:21 34.108635 -118.497698 85 5570ft 136kts
22-Dec-19 19:22 34.103797 -118.475962 136 5560ft 124kts
22-Dec-19 19:23 34.090694 -118.462950 167 5557ft 115kts
22-Dec-19 19:24 34.074481 -118.461164 188 5570ft 131kts
22-Dec-19 19:25 34.056632 -118.463503 191 5561ft 142kts
22-Dec-19 19:26 34.035819 -118.466913 191 5559ft 144kts
22-Dec-19 19:27 34.012719 -118.470723 191 5559ft 144kts
22-Dec-19 19:28 33.993110 -118.460983 150 5560ft 154kts
22-Dec-19 19:29 33.974718 -118.448439 161 5559ft 151kts
22-Dec-19 19:30 33.956059 -118.437889 152 5560ft 153kts
22-Dec-19 19:31 33.934419 -118.435564 174 5552ft 148kts
22-Dec-19 19:32 33.918162 -118.417857 133 5559ft 159kts
22-Dec-19 19:33 33.905226 -118.397615 138 5558ft 157kts
22-Dec-19 19:34 33.890173 -118.380748 152 5561ft 153kts
22-Dec-19 19:35 33.872624 -118.367376 153 5562ft 153kts
22-Dec-19 19:36 33.855839 -118.351411 136 5563ft 158kts
22-Dec-19 19:37 33.842109 -118.332940 142 5557ft 157kts
22-Dec-19 19:38 33.826624 -118.315878 143 5807ft 145kts
22-Dec-19 19:39 33.814546 -118.297006 112 5848ft 161kts
22-Dec-19 19:40 33.806139 -118.267647 115 5843ft 163kts
22-Dec-19 19:41 33.796967 -118.238837 116 5843ft 163kts
22-Dec-19 19:42 33.787546 -118.209833 116 5843ft 163kts
22-Dec-19 19:43 33.778201 -118.181143 116 5843ft 163kts
22-Dec-19 19:44 33.768410 -118.151091 116 5843ft 163kts
22-Dec-19 19:45 33.759439 -118.123567 116 5779ft 153kts
22-Dec-19 19:46 33.752162 -118.101092 119 5139ft 109kts
22-Dec-19 19:47 33.745906 -118.082169 120 4534ft 100kts
22-Dec-19 19:48 33.739664 -118.063438 118 3986ft 124kts
22-Dec-19 19:49 33.733270 -118.043777 117 3853ft 135kts
22-Dec-19 19:50 33.725253 -118.019200 116 3874ft 157kts
22-Dec-19 19:51 33.715350 -117.988859 116 3845ft 162kts
22-Dec-19 19:52 33.706244 -117.961059 116 3875ft 163kts
22-Dec-19 19:53 33.698040 -117.935970 116 3838ft 148kts
22-Dec-19 19:54 33.692247 -117.917076 114 2811ft 144kts
22-Dec-19 19:55 33.686950 -117.897683 113 1609ft 140kts
22-Dec-19 19:56 33.689596 -117.883266 24 1393ft 97kts
22-Dec-19 19:57 33.699569 -117.877310 17 1306ft 97kts
22-Dec-19 19:58 33.701855 -117.865106 128 1071ft 91kts
22-Dec-19 19:59 33.694072 -117.857895 178 575ft 69kts
22-Dec-19 20:00 33.687377 -117.859433 216 269ft 52kts
22-Dec-19 20:01 33.682909 -117.863339 243 159ft 44kts
22-Dec-19 20:02 33.679414 -117.866452 211 60ft 20kts
22-Dec-19 20:03 33.678005 -117.867921 270 60ft 17kts
22-Dec-19 20:05 33.677544 -117.869583 287 60ft 0kts
22-Dec-19 20:06 33.677546 -117.869591 287 60ft 0kts
22-Dec-19 20:07 33.677547 -117.869594 287 60ft 0kts
22-Dec-19 20:08 33.677547 -117.869594 287 60ft 0kts
22-Dec-19 20:09 34.210558 -119.095223 1 63ft 0kts
22-Dec-19 20:10 34.210558 -119.095223 1 63ft 0kts
22-Dec-19 20:11 34.210558 -119.095223 1 63ft 0kts
22-Dec-19 20:12 34.210558 -119.095223 1 63ft 0kts
22-Dec-19 20:13 34.210558 -119.095223 1 63ft 0kts
22-Dec-19 20:14 34.210558 -119.095223 1 63ft 0kts
22-Dec-19 20:15 34.210558 -119.095223 1 63ft 0kts
22-Dec-19 20:16 34.210558 -119.095223 1 63ft 0kts
22-Dec-19 20:17 34.210558 -119.095223 1 63ft 0kts

Navigation Log

Ident Type
Flight plan parsing failed, navigation log unavailable